Portada
METAR-TAF:

METAR-TAF

Aeroports :

Bangalore, Índia

latitud: 12-57-00N, longitud: 077-40-06E, altitud: 888 m

Observació

L'informe es va fer fa 22 minuts, a les 07:00 UTC
Vent 8 kt del Oest/Sud-Oest
Temperatura 30°C
Humitat 66%
Pressió 1013 hPa
Visibilitat: 8000 m
Escasses núvols a una alçada de 1200 ft

METAR: VOBG 270700Z 25008KT 8000 FEW012 30/23 Q1013 NOSIG

Hora: 12:52 (07:22 UTC)

Pronòstic

L'informe es va fer fa 2 hores i 22 minuts, a les 05:00 UTC
Pronòstic vàlid del 27 a les 06 UTC al 27 a les 15 UTC
Vent 10 kt del Oest
Visibilitat: 8000 m
Núvols disperses a una alçada de 1500 ft
Temporalment
l' 27 a les 09 UTC al 27 a les 15 UTC
Visibilitat: 4000 m
Núvols disperses a una alçada de 1000 ft
Núvols disperses a una alçada de 2000 ft
Escasses núvols a una alçada de 2500 ft, Cumulonimbus.
Cel ennuvolat a una alçada de 8000 ft
tempesta, pluja, pluja

TAF: VOBG 270500Z 2706/2715 27010KT 8000 SCT015 TEMPO 2709/2715 4000 TSRA RA SCT010 SCT020 FEW025CB BKN080

Observacions i pronòstics meteorològics de més de 4000 aeroports (METAR i TAF).

Les estacions disponibles són els punts grocs i vermells al mapa.

Posi el ratolí al punt desitjat per veure el nom de l'estació.

Feu clic per veure les observacions i els pronòstics meteorològics.

Per canviar el mapa: feu clic els botons verds amb una creu de color negre per apropar; al botó verd amb un guió per allunyar la imatge; o en les fletxes verdes per a mapes adjacents.


METAR-TAF: